sensor_id;sensor_type;location;lat;lon;timestamp;temperature;humidity
25741;DHT22;13592;50.838;4.412;2023-03-24T00:00:49;13.40;99.90
25741;DHT22;13592;50.838;4.412;2023-03-24T00:03:15;13.40;99.90
25741;DHT22;13592;50.838;4.412;2023-03-24T00:06:00;13.30;99.90
25741;DHT22;13592;50.838;4.412;2023-03-24T00:08:31;13.40;99.90
25741;DHT22;13592;50.838;4.412;2023-03-24T00:11:01;13.40;99.90
25741;DHT22;13592;50.838;4.412;2023-03-24T00:13:32;13.40;99.90
25741;DHT22;13592;50.838;4.412;2023-03-24T00:16:10;13.50;99.90
25741;DHT22;13592;50.838;4.412;2023-03-24T00:18:46;13.40;99.90
25741;DHT22;13592;50.838;4.412;2023-03-24T00:21:26;13.40;99.90
25741;DHT22;13592;50.838;4.412;2023-03-24T00:23:56;13.50;99.90
25741;DHT22;13592;50.838;4.412;2023-03-24T00:26:23;13.40;99.90
25741;DHT22;13592;50.838;4.412;2023-03-24T00:29:02;13.30;99.90
25741;DHT22;13592;50.838;4.412;2023-03-24T00:31:35;13.40;99.90
25741;DHT22;13592;50.838;4.412;2023-03-24T00:34:10;13.40;99.90
25741;DHT22;13592;50.838;4.412;2023-03-24T00:36:39;13.40;99.90
25741;DHT22;13592;50.838;4.412;2023-03-24T00:39:06;13.40;99.90
25741;DHT22;13592;50.838;4.412;2023-03-24T00:41:32;13.50;99.90
25741;DHT22;13592;50.838;4.412;2023-03-24T00:44:01;13.50;99.90
25741;DHT22;13592;50.838;4.412;2023-03-24T00:46:32;13.50;99.90
25741;DHT22;13592;50.838;4.412;2023-03-24T00:49:11;13.50;99.90
25741;DHT22;13592;50.838;4.412;2023-03-24T00:51:54;13.50;99.90
25741;DHT22;13592;50.838;4.412;2023-03-24T00:56:55;13.60;99.90
25741;DHT22;13592;50.838;4.412;2023-03-24T00:59:22;13.60;99.90
25741;DHT22;13592;50.838;4.412;2023-03-24T01:01:51;13.60;99.90
25741;DHT22;13592;50.838;4.412;2023-03-24T01:04:23;13.60;99.90
25741;DHT22;13592;50.838;4.412;2023-03-24T01:07:00;13.60;99.90
25741;DHT22;13592;50.838;4.412;2023-03-24T01:09:35;13.60;99.90
25741;DHT22;13592;50.838;4.412;2023-03-24T01:12:03;13.70;99.90
25741;DHT22;13592;50.838;4.412;2023-03-24T01:14:48;13.80;99.90
25741;DHT22;13592;50.838;4.412;2023-03-24T01:17:17;13.80;99.90
25741;DHT22;13592;50.838;4.412;2023-03-24T01:22:50;13.80;99.90
25741;DHT22;13592;50.838;4.412;2023-03-24T01:33:04;13.90;99.90
25741;DHT22;13592;50.838;4.412;2023-03-24T01:38:31;14.00;99.90
25741;DHT22;13592;50.838;4.412;2023-03-24T01:41:07;14.00;99.90
25741;DHT22;13592;50.838;4.412;2023-03-24T01:43:43;14.10;99.90
25741;DHT22;13592;50.838;4.412;2023-03-24T01:46:35;14.10;99.90
25741;DHT22;13592;50.838;4.412;2023-03-24T01:49:14;14.20;99.90
25741;DHT22;13592;50.838;4.412;2023-03-24T01:51:47;14.20;99.90
25741;DHT22;13592;50.838;4.412;2023-03-24T01:54:24;14.30;99.90
25741;DHT22;13592;50.838;4.412;2023-03-24T02:03:16;14.20;99.90
25741;DHT22;13592;50.838;4.412;2023-03-24T02:14:59;14.30;99.90
25741;DHT22;13592;50.838;4.412;2023-03-24T02:20:10;14.20;99.90
25741;DHT22;13592;50.838;4.412;2023-03-24T03:27:58;13.00;99.90
25741;DHT22;13592;50.838;4.412;2023-03-24T06:48:57;12.60;99.90
25741;DHT22;13592;50.838;4.412;2023-03-24T07:07:21;14.10;99.90
25741;DHT22;13592;50.838;4.412;2023-03-24T07:13:04;15.70;99.90
25741;DHT22;13592;50.838;4.412;2023-03-24T07:15:46;15.60;99.90
25741;DHT22;13592;50.838;4.412;2023-03-24T07:18:17;15.90;99.90
25741;DHT22;13592;50.838;4.412;2023-03-24T11:52:41;20.60;97.10
25741;DHT22;13592;50.838;4.412;2023-03-24T11:57:55;17.90;98.60
25741;DHT22;13592;50.838;4.412;2023-03-24T12:00:32;17.90;99.90
25741;DHT22;13592;50.838;4.412;2023-03-24T12:27:33;16.60;99.90
25741;DHT22;13592;50.838;4.412;2023-03-24T12:35:28;16.40;99.90
25741;DHT22;13592;50.838;4.412;2023-03-24T12:38:15;16.70;99.90
25741;DHT22;13592;50.838;4.412;2023-03-24T12:40:53;16.70;99.90
25741;DHT22;13592;50.838;4.412;2023-03-24T12:58:09;16.60;99.90
25741;DHT22;13592;50.838;4.412;2023-03-24T13:00:38;16.50;99.90
25741;DHT22;13592;50.838;4.412;2023-03-24T13:03:13;16.30;99.90
25741;DHT22;13592;50.838;4.412;2023-03-24T13:05:51;16.30;99.90
25741;DHT22;13592;50.838;4.412;2023-03-24T13:08:27;15.90;99.90
25741;DHT22;13592;50.838;4.412;2023-03-24T13:11:03;15.80;99.90
25741;DHT22;13592;50.838;4.412;2023-03-24T13:13:43;15.90;99.90
25741;DHT22;13592;50.838;4.412;2023-03-24T13:18:56;15.60;99.90
25741;DHT22;13592;50.838;4.412;2023-03-24T13:21:24;15.30;99.90
25741;DHT22;13592;50.838;4.412;2023-03-24T13:23:55;15.10;99.90
25741;DHT22;13592;50.838;4.412;2023-03-24T13:29:48;14.90;99.90
25741;DHT22;13592;50.838;4.412;2023-03-24T13:31:49;14.90;99.90
25741;DHT22;13592;50.838;4.412;2023-03-24T13:36:54;14.80;99.90
25741;DHT22;13592;50.838;4.412;2023-03-24T13:39:21;14.80;99.90
25741;DHT22;13592;50.838;4.412;2023-03-24T13:47:19;14.90;99.90
25741;DHT22;13592;50.838;4.412;2023-03-24T13:50:00;15.00;99.90
25741;DHT22;13592;50.838;4.412;2023-03-24T13:52:44;15.00;99.90
25741;DHT22;13592;50.838;4.412;2023-03-24T13:57:50;15.20;99.90
25741;DHT22;13592;50.838;4.412;2023-03-24T14:00:27;15.10;99.90
25741;DHT22;13592;50.838;4.412;2023-03-24T14:10:37;15.40;99.90
25741;DHT22;13592;50.838;4.412;2023-03-24T14:13:49;15.40;99.90
25741;DHT22;13592;50.838;4.412;2023-03-24T14:15:51;15.50;99.90
25741;DHT22;13592;50.838;4.412;2023-03-24T14:23:22;15.70;99.90
25741;DHT22;13592;50.838;4.412;2023-03-24T14:25:59;15.70;99.90
25741;DHT22;13592;50.838;4.412;2023-03-24T14:28:41;15.80;99.90
25741;DHT22;13592;50.838;4.412;2023-03-24T14:39:08;15.80;99.90
25741;DHT22;13592;50.838;4.412;2023-03-24T14:41:38;15.80;99.90
25741;DHT22;13592;50.838;4.412;2023-03-24T14:44:15;15.90;99.90
25741;DHT22;13592;50.838;4.412;2023-03-24T14:47:08;16.10;99.90
25741;DHT22;13592;50.838;4.412;2023-03-24T14:52:12;15.70;99.90
25741;DHT22;13592;50.838;4.412;2023-03-24T14:54:43;15.60;99.90
25741;DHT22;13592;50.838;4.412;2023-03-24T14:57:22;15.50;99.90
25741;DHT22;13592;50.838;4.412;2023-03-24T15:02:42;15.50;99.90
25741;DHT22;13592;50.838;4.412;2023-03-24T15:10:48;15.20;99.90
25741;DHT22;13592;50.838;4.412;2023-03-24T15:16:02;15.30;99.90
25741;DHT22;13592;50.838;4.412;2023-03-24T15:21:12;15.50;99.90
25741;DHT22;13592;50.838;4.412;2023-03-24T15:23:38;15.60;99.90
25741;DHT22;13592;50.838;4.412;2023-03-24T15:26:10;15.60;99.90
25741;DHT22;13592;50.838;4.412;2023-03-24T15:28:36;15.40;99.90
25741;DHT22;13592;50.838;4.412;2023-03-24T15:31:02;15.30;99.90
25741;DHT22;13592;50.838;4.412;2023-03-24T15:33:27;15.30;99.90
25741;DHT22;13592;50.838;4.412;2023-03-24T15:36:02;15.50;99.90
25741;DHT22;13592;50.838;4.412;2023-03-24T15:38:31;15.50;99.90
25741;DHT22;13592;50.838;4.412;2023-03-24T15:41:09;15.50;99.90
25741;DHT22;13592;50.838;4.412;2023-03-24T15:43:40;15.60;99.90
25741;DHT22;13592;50.838;4.412;2023-03-24T15:46:19;15.60;99.90
25741;DHT22;13592;50.838;4.412;2023-03-24T15:48:51;15.60;99.90
25741;DHT22;13592;50.838;4.412;2023-03-24T15:51:17;15.40;99.90
25741;DHT22;13592;50.838;4.412;2023-03-24T15:56:27;15.50;99.90
25741;DHT22;13592;50.838;4.412;2023-03-24T16:01:38;15.30;99.90
25741;DHT22;13592;50.838;4.412;2023-03-24T16:04:18;15.40;99.90
25741;DHT22;13592;50.838;4.412;2023-03-24T16:06:57;15.30;99.90
25741;DHT22;13592;50.838;4.412;2023-03-24T16:09:33;15.30;99.90
25741;DHT22;13592;50.838;4.412;2023-03-24T16:12:07;15.40;99.90
25741;DHT22;13592;50.838;4.412;2023-03-24T16:14:34;15.30;99.90
25741;DHT22;13592;50.838;4.412;2023-03-24T16:17:00;15.50;99.90
25741;DHT22;13592;50.838;4.412;2023-03-24T16:19:29;15.40;99.90
25741;DHT22;13592;50.838;4.412;2023-03-24T16:21:58;15.40;99.90
25741;DHT22;13592;50.838;4.412;2023-03-24T16:24:28;15.50;99.90
25741;DHT22;13592;50.838;4.412;2023-03-24T16:26:56;15.30;99.90
25741;DHT22;13592;50.838;4.412;2023-03-24T16:29:22;15.20;99.90
25741;DHT22;13592;50.838;4.412;2023-03-24T16:31:51;15.10;99.90
25741;DHT22;13592;50.838;4.412;2023-03-24T16:34:23;15.20;99.90
25741;DHT22;13592;50.838;4.412;2023-03-24T16:39:25;15.40;99.90
25741;DHT22;13592;50.838;4.412;2023-03-24T16:41:53;15.40;99.90
25741;DHT22;13592;50.838;4.412;2023-03-24T16:44:25;15.30;99.90
25741;DHT22;13592;50.838;4.412;2023-03-24T16:46:52;15.30;99.90
25741;DHT22;13592;50.838;4.412;2023-03-24T16:49:25;15.30;99.90
25741;DHT22;13592;50.838;4.412;2023-03-24T16:51:51;15.20;99.90
25741;DHT22;13592;50.838;4.412;2023-03-24T16:54:26;15.10;99.90
25741;DHT22;13592;50.838;4.412;2023-03-24T17:02:07;14.70;99.90
25741;DHT22;13592;50.838;4.412;2023-03-24T17:04:35;14.30;99.90
25741;DHT22;13592;50.838;4.412;2023-03-24T17:07:07;14.20;99.90
25741;DHT22;13592;50.838;4.412;2023-03-24T17:12:09;13.80;99.90
25741;DHT22;13592;50.838;4.412;2023-03-24T17:14:53;13.40;99.90
25741;DHT22;13592;50.838;4.412;2023-03-24T17:17:22;13.10;99.90
25741;DHT22;13592;50.838;4.412;2023-03-24T17:19:47;12.80;99.90
25741;DHT22;13592;50.838;4.412;2023-03-24T17:22:13;12.60;99.90
25741;DHT22;13592;50.838;4.412;2023-03-24T17:24:44;12.40;99.90
25741;DHT22;13592;50.838;4.412;2023-03-24T17:27:17;12.30;99.90
25741;DHT22;13592;50.838;4.412;2023-03-24T17:29:43;12.20;99.90
25741;DHT22;13592;50.838;4.412;2023-03-24T17:32:12;12.20;99.90
25741;DHT22;13592;50.838;4.412;2023-03-24T17:34:53;12.20;99.90
25741;DHT22;13592;50.838;4.412;2023-03-24T17:37:18;12.00;99.90
25741;DHT22;13592;50.838;4.412;2023-03-24T17:42:14;12.10;99.90
25741;DHT22;13592;50.838;4.412;2023-03-24T17:47:09;12.20;99.90
25741;DHT22;13592;50.838;4.412;2023-03-24T17:49:36;12.30;99.90
25741;DHT22;13592;50.838;4.412;2023-03-24T17:52:04;12.30;99.90
25741;DHT22;13592;50.838;4.412;2023-03-24T17:54:29;12.30;99.90
25741;DHT22;13592;50.838;4.412;2023-03-24T17:56:56;12.40;99.90
25741;DHT22;13592;50.838;4.412;2023-03-24T18:01:50;12.50;99.90
25741;DHT22;13592;50.838;4.412;2023-03-24T18:04:22;12.50;99.90
25741;DHT22;13592;50.838;4.412;2023-03-24T18:06:51;12.50;99.90
25741;DHT22;13592;50.838;4.412;2023-03-24T18:09:20;12.60;99.90
25741;DHT22;13592;50.838;4.412;2023-03-24T18:11:46;12.60;99.90
25741;DHT22;13592;50.838;4.412;2023-03-24T18:14:17;12.50;99.90
25741;DHT22;13592;50.838;4.412;2023-03-24T18:19:33;12.60;99.90
25741;DHT22;13592;50.838;4.412;2023-03-24T18:22:00;12.60;99.90
25741;DHT22;13592;50.838;4.412;2023-03-24T18:24:32;12.50;99.90
25741;DHT22;13592;50.838;4.412;2023-03-24T18:27:11;12.50;99.90
25741;DHT22;13592;50.838;4.412;2023-03-24T18:29:38;12.60;99.90
25741;DHT22;13592;50.838;4.412;2023-03-24T18:32:12;12.70;99.90
25741;DHT22;13592;50.838;4.412;2023-03-24T18:34:54;12.70;99.90
25741;DHT22;13592;50.838;4.412;2023-03-24T18:37:22;12.50;99.90
25741;DHT22;13592;50.838;4.412;2023-03-24T18:39:48;12.50;99.90
25741;DHT22;13592;50.838;4.412;2023-03-24T18:42:17;12.60;99.90
25741;DHT22;13592;50.838;4.412;2023-03-24T18:44:43;12.70;99.90
25741;DHT22;13592;50.838;4.412;2023-03-24T18:47:09;12.70;99.90
25741;DHT22;13592;50.838;4.412;2023-03-24T18:49:36;12.60;99.90
25741;DHT22;13592;50.838;4.412;2023-03-24T18:54:31;12.50;99.90
25741;DHT22;13592;50.838;4.412;2023-03-24T18:56:57;12.40;99.90
25741;DHT22;13592;50.838;4.412;2023-03-24T18:59:24;12.40;99.90
25741;DHT22;13592;50.838;4.412;2023-03-24T19:01:54;12.40;99.90
25741;DHT22;13592;50.838;4.412;2023-03-24T19:04:30;12.30;99.90
25741;DHT22;13592;50.838;4.412;2023-03-24T19:07:15;12.30;99.90
25741;DHT22;13592;50.838;4.412;2023-03-24T19:09:49;12.30;99.90
25741;DHT22;13592;50.838;4.412;2023-03-24T19:12:15;12.30;99.90
25741;DHT22;13592;50.838;4.412;2023-03-24T19:14:49;12.40;99.90
25741;DHT22;13592;50.838;4.412;2023-03-24T19:17:21;12.20;99.90
25741;DHT22;13592;50.838;4.412;2023-03-24T19:19:52;12.20;99.90
25741;DHT22;13592;50.838;4.412;2023-03-24T19:22:23;12.30;99.90
25741;DHT22;13592;50.838;4.412;2023-03-24T19:24:52;12.40;99.90
25741;DHT22;13592;50.838;4.412;2023-03-24T19:27:32;12.30;99.90
25741;DHT22;13592;50.838;4.412;2023-03-24T19:30:08;12.30;99.90
25741;DHT22;13592;50.838;4.412;2023-03-24T19:32:36;12.50;99.90
25741;DHT22;13592;50.838;4.412;2023-03-24T19:35:04;12.50;99.90
25741;DHT22;13592;50.838;4.412;2023-03-24T19:37:31;12.50;99.90
25741;DHT22;13592;50.838;4.412;2023-03-24T19:40:03;12.50;99.90
25741;DHT22;13592;50.838;4.412;2023-03-24T19:45:28;12.50;99.90
25741;DHT22;13592;50.838;4.412;2023-03-24T19:47:56;12.60;99.90
25741;DHT22;13592;50.838;4.412;2023-03-24T19:50:24;12.50;99.90
25741;DHT22;13592;50.838;4.412;2023-03-24T19:52:50;12.50;99.90
25741;DHT22;13592;50.838;4.412;2023-03-24T19:55:15;12.50;99.90
25741;DHT22;13592;50.838;4.412;2023-03-24T19:57:45;12.50;99.90
25741;DHT22;13592;50.838;4.412;2023-03-24T20:02:59;12.40;99.90
25741;DHT22;13592;50.838;4.412;2023-03-24T20:05:28;12.60;99.90
25741;DHT22;13592;50.838;4.412;2023-03-24T20:08:03;12.50;99.90
25741;DHT22;13592;50.838;4.412;2023-03-24T20:10:35;12.40;99.90
25741;DHT22;13592;50.838;4.412;2023-03-24T20:13:09;12.30;99.90
25741;DHT22;13592;50.838;4.412;2023-03-24T20:15:41;12.20;99.90
25741;DHT22;13592;50.838;4.412;2023-03-24T20:18:10;12.00;99.90
25741;DHT22;13592;50.838;4.412;2023-03-24T20:20:43;11.90;99.90
25741;DHT22;13592;50.838;4.412;2023-03-24T20:23:09;11.80;99.90
25741;DHT22;13592;50.838;4.412;2023-03-24T20:25:43;11.60;99.90
25741;DHT22;13592;50.838;4.412;2023-03-24T20:28:22;11.40;99.90
25741;DHT22;13592;50.838;4.412;2023-03-24T20:30:49;11.60;99.90
25741;DHT22;13592;50.838;4.412;2023-03-24T20:33:19;11.50;99.90
25741;DHT22;13592;50.838;4.412;2023-03-24T20:35:45;11.60;99.90
25741;DHT22;13592;50.838;4.412;2023-03-24T20:38:15;11.50;99.90
25741;DHT22;13592;50.838;4.412;2023-03-24T20:40:45;11.60;99.90
25741;DHT22;13592;50.838;4.412;2023-03-24T20:45:42;11.50;99.90
25741;DHT22;13592;50.838;4.412;2023-03-24T20:50:39;11.30;99.90
25741;DHT22;13592;50.838;4.412;2023-03-24T20:53:19;11.30;99.90
25741;DHT22;13592;50.838;4.412;2023-03-24T20:56:00;11.20;99.90
25741;DHT22;13592;50.838;4.412;2023-03-24T20:58:29;11.20;99.90
25741;DHT22;13592;50.838;4.412;2023-03-24T21:04:10;11.10;99.90
25741;DHT22;13592;50.838;4.412;2023-03-24T21:06:37;11.30;99.90
25741;DHT22;13592;50.838;4.412;2023-03-24T21:09:06;11.20;99.90
25741;DHT22;13592;50.838;4.412;2023-03-24T21:14:04;11.20;99.90
25741;DHT22;13592;50.838;4.412;2023-03-24T21:21:49;11.40;99.90
25741;DHT22;13592;50.838;4.412;2023-03-24T21:24:25;11.40;99.90
25741;DHT22;13592;50.838;4.412;2023-03-24T21:27:13;11.20;99.90
25741;DHT22;13592;50.838;4.412;2023-03-24T21:29:42;11.40;99.90
25741;DHT22;13592;50.838;4.412;2023-03-24T21:32:11;11.40;99.90
25741;DHT22;13592;50.838;4.412;2023-03-24T21:34:49;11.50;99.90
25741;DHT22;13592;50.838;4.412;2023-03-24T21:37:27;11.60;99.90
25741;DHT22;13592;50.838;4.412;2023-03-24T21:42:29;11.70;99.90
25741;DHT22;13592;50.838;4.412;2023-03-24T21:44:56;11.60;99.90
25741;DHT22;13592;50.838;4.412;2023-03-24T21:47:25;11.60;99.90
25741;DHT22;13592;50.838;4.412;2023-03-24T21:49:59;11.60;99.90
25741;DHT22;13592;50.838;4.412;2023-03-24T21:52:29;11.50;99.90
25741;DHT22;13592;50.838;4.412;2023-03-24T21:55:01;11.50;99.90
25741;DHT22;13592;50.838;4.412;2023-03-24T21:57:35;11.70;99.90
25741;DHT22;13592;50.838;4.412;2023-03-24T22:05:33;11.60;99.90
25741;DHT22;13592;50.838;4.412;2023-03-24T22:08:03;11.60;99.90
25741;DHT22;13592;50.838;4.412;2023-03-24T22:10:34;11.70;99.90
25741;DHT22;13592;50.838;4.412;2023-03-24T22:13:02;11.70;99.90
25741;DHT22;13592;50.838;4.412;2023-03-24T22:21:38;11.70;99.90
25741;DHT22;13592;50.838;4.412;2023-03-24T22:24:09;11.80;99.90
25741;DHT22;13592;50.838;4.412;2023-03-24T22:26:37;11.70;99.90
25741;DHT22;13592;50.838;4.412;2023-03-24T22:32:11;11.50;99.90
25741;DHT22;13592;50.838;4.412;2023-03-24T22:34:39;11.50;99.90
25741;DHT22;13592;50.838;4.412;2023-03-24T22:39:52;11.60;99.90
25741;DHT22;13592;50.838;4.412;2023-03-24T22:42:25;11.70;99.90
25741;DHT22;13592;50.838;4.412;2023-03-24T22:44:53;11.70;99.90
25741;DHT22;13592;50.838;4.412;2023-03-24T22:47:18;11.80;99.90
25741;DHT22;13592;50.838;4.412;2023-03-24T22:52:49;12.00;99.90
25741;DHT22;13592;50.838;4.412;2023-03-24T22:55:19;11.90;99.90
25741;DHT22;13592;50.838;4.412;2023-03-24T22:57:46;11.70;99.90
25741;DHT22;13592;50.838;4.412;2023-03-24T23:02:50;11.40;99.90
25741;DHT22;13592;50.838;4.412;2023-03-24T23:05:15;11.30;99.90
25741;DHT22;13592;50.838;4.412;2023-03-24T23:07:41;11.40;99.90
25741;DHT22;13592;50.838;4.412;2023-03-24T23:10:08;11.40;99.90
25741;DHT22;13592;50.838;4.412;2023-03-24T23:12:40;11.40;99.90
25741;DHT22;13592;50.838;4.412;2023-03-24T23:15:08;11.40;99.90
25741;DHT22;13592;50.838;4.412;2023-03-24T23:17:49;11.30;99.90
25741;DHT22;13592;50.838;4.412;2023-03-24T23:20:27;11.30;99.90
25741;DHT22;13592;50.838;4.412;2023-03-24T23:28:27;11.30;99.90
25741;DHT22;13592;50.838;4.412;2023-03-24T23:30:54;11.30;99.90
25741;DHT22;13592;50.838;4.412;2023-03-24T23:33:20;11.30;99.90
25741;DHT22;13592;50.838;4.412;2023-03-24T23:35:49;11.40;99.90
25741;DHT22;13592;50.838;4.412;2023-03-24T23:38:15;11.30;99.90
25741;DHT22;13592;50.838;4.412;2023-03-24T23:40:44;11.20;99.90
25741;DHT22;13592;50.838;4.412;2023-03-24T23:43:15;11.30;99.90
25741;DHT22;13592;50.838;4.412;2023-03-24T23:45:45;11.40;99.90
25741;DHT22;13592;50.838;4.412;2023-03-24T23:48:29;11.30;99.90
25741;DHT22;13592;50.838;4.412;2023-03-24T23:51:08;11.20;99.90
25741;DHT22;13592;50.838;4.412;2023-03-24T23:53:54;11.10;99.90
25741;DHT22;13592;50.838;4.412;2023-03-24T23:56:23;11.00;99.90
25741;DHT22;13592;50.838;4.412;2023-03-24T23:58:57;10.90;99.90
